Air Navigation Services of Czech Republic  
Last data update:  27.04.2018 00:24:08 UTC Česká verze
   METEO Page displayed:  27.04.2018 00:25:09 UTC  
help
METAR EDDB 270020Z VRB02KT CAVOK 06/05 Q1017 NOSIG=
METAR EDDC 270020Z 19004KT 150V240 9999 FEW039 BKN064 06/04 Q1018=
METAR EDDE 270020Z 20007KT CAVOK 05/04 Q1017=
METAR EDDF 270020Z 18004KT 160V230 CAVOK 05/03 Q1018 NOSIG=
METAR EDDM 270020Z 16001KT CAVOK 05/02 Q1019 NOSIG=
METAR EDDN 270020Z 10008KT CAVOK 04/00 Q1018=
METAR EDDP 270020Z 21005KT CAVOK 06/04 Q1017 NOSIG=
METAR EDDT 270020Z 27004KT 9999 SCT028 BKN060 07/05 Q1016=
METAR EDQM NIL
METAR EPBY 270000Z 23006KT CAVOK 04/03 Q1015 =
METAR EPGD 270000Z 24006KT CAVOK 06/04 Q1012 =
METAR EPKK 270000Z VRB01KT CAVOK 04/03 Q1017 =
METAR EPKT 270000Z VRB01KT 9000 MIFG NSC 03/02 Q1017 =
METAR EPLL 270000Z 23004KT CAVOK 04/03 Q1016 =
METAR EPPO 270000Z 24005KT CAVOK 05/04 Q1016 R10/290095 =
METAR EPRZ 270000Z 25007KT CAVOK 05/04 Q1017 =
METAR EPWA 270000Z 24004KT 220V280 CAVOK 05/05 Q1015 NOSIG=
METAR EPWR 270000Z 26008KT CAVOK 07/04 Q1018 =
METAR LHBP 270000Z 23006KT CAVOK 10/10 Q1018 NOSIG=
METAR LHSM NIL
METAR LKCV 270000Z 22004KT CAVOK 08/02 Q1018 RMK BLACK=
METAR LKKB 270000Z 16003KT CAVOK 05/02 Q1019 RMK BLU=
METAR LKKU NIL
METAR LKKV 270000Z 09003KT CAVOK 01/M01 Q1018 RMK REG QNH 1015=
METAR LKLN 270000Z AUTO VRB01KT CAVOK 03/00 Q1019=
METAR LKMT 270000Z 24004KT CAVOK 02/01 Q1018 NOSIG RMK REG QNH 1015=
METAR LKNA 270000Z 29006KT CAVOK 07/00 Q1019 RMK BLU=
METAR LKPD 270000Z 20002KT CAVOK 05/02 Q1019 RMK BLU=
METAR LKPR 270000Z VRB02KT CAVOK 04/01 Q1018 NOSIG RMK REG QNH 1015=
METAR LKTB 270000Z 00000KT CAVOK 06/01 Q1019 NOSIG RMK REG QNH 1015=
METAR LKVO NIL
METAR LOWI 262350Z AUTO VRB01KT 9999 FEW026 07/05 Q1019=
METAR LOWL 262350Z AUTO 30002KT 9999 BKN080 08/05 Q1020=
METAR LOWS 262350Z AUTO 17003KT 9999 FEW170 SCT250 06/05 Q1019=
METAR LOWW 262350Z 28011KT CAVOK 10/05 Q1019 NOSIG=
METAR LZIB 270000Z 28010KT CAVOK 10/06 Q1019=
METAR LZKZ 270000Z 05002KT CAVOK 09/08 Q1017=
METAR LZPP 270000Z AUTO 32003KT 4700 BR NCD 05/05 Q1019=
METAR LZSL 270000Z 00000KT 1000 R36/0800N BR SCT010 05/04 Q1019=
METAR LZTT 270000Z 30003KT 270V340 9999 FEW040 04/02 Q1017=
METAR LZZI 270000Z VRB02KT 1600 BR BKN003 05/05 Q1019=